Time;durP1;ratioP1;P1;durP2;ratioP2;P2;SDS_P1;SDS_P2;PMS_P1;PMS_P2;Temp;Humidity;BMP_temperature;BMP_pressure;BME280_temperature;BME280_humidity;BME280_pressure;Samples;Min_cycle;Max_cycle;Signal;HPM_P1;HPM_P2
2023/10/20 00:00:50;;;;;;;17.40;3.00;;;;;;;13.49;100.00;97198.31;5027633;28;20052;-45
2023/10/20 00:03:37;;;;;;;15.65;2.47;;;;;;;13.51;100.00;97201.41;4997561;28;20049;-45
2023/10/20 00:06:25;;;;;;;20.75;4.25;;;;;;;13.52;100.00;97194.66;5026759;28;20049;-47
2023/10/20 00:09:14;;;;;;;21.38;2.90;;;;;;;13.52;100.00;97194.66;5027360;28;20120;-49
2023/10/20 00:12:01;;;;;;;22.63;3.00;;;;;;;13.53;100.00;97204.50;5024916;28;20187;-45
2023/10/20 00:14:48;;;;;;;15.95;2.45;;;;;;;13.50;100.00;97201.88;5003207;28;20095;-49
2023/10/20 00:17:35;;;;;;;15.55;3.17;;;;;;;13.45;100.00;97197.66;4997334;28;20492;-46
2023/10/20 00:20:22;;;;;;;21.73;3.67;;;;;;;13.41;100.00;97185.91;5026723;28;20065;-52
2023/10/20 00:23:10;;;;;;;16.48;2.50;;;;;;;13.40;100.00;97195.44;4997196;28;20119;-50
2023/10/20 00:25:58;;;;;;;18.25;2.55;;;;;;;13.40;100.00;97195.44;5008637;28;20038;-46
2023/10/20 00:28:45;;;;;;;13.45;2.72;;;;;;;13.39;100.00;97202.25;5017663;28;20053;-49
2023/10/20 00:31:32;;;;;;;14.15;2.40;;;;;;;13.38;100.00;97200.69;5027603;28;20128;-53
2023/10/20 00:34:19;;;;;;;19.17;2.30;;;;;;;13.37;100.00;97199.13;5026829;28;20060;-51
2023/10/20 00:37:06;;;;;;;16.77;2.78;;;;;;;13.39;100.00;97216.16;5021655;28;20041;-45
2023/10/20 00:39:54;;;;;;;15.38;2.40;;;;;;;13.41;100.00;97216.47;4993554;28;20061;-46
2023/10/20 00:42:41;;;;;;;20.92;2.53;;;;;;;13.41;100.00;97217.25;5015675;28;20066;-47
2023/10/20 00:45:28;;;;;;;18.88;2.00;;;;;;;13.43;100.00;97216.78;5026479;28;20078;-46
2023/10/20 00:48:15;;;;;;;19.52;2.75;;;;;;;13.44;100.00;97215.56;5019589;28;20045;-45
2023/10/20 00:51:05;;;;;;;15.13;2.28;;;;;;;13.47;100.00;97228.56;5000749;28;20455;-45
2023/10/20 00:53:52;;;;;;;14.32;2.55;;;;;;;13.48;100.00;97227.31;4996185;28;20053;-45
2023/10/20 00:56:42;;;;;;;14.90;1.88;;;;;;;13.47;100.00;97225.78;5016137;28;20059;-45
2023/10/20 00:59:29;;;;;;;13.45;2.20;;;;;;;13.49;100.00;97234.44;5026308;28;20783;-46
2023/10/20 01:02:17;;;;;;;23.52;3.78;;;;;;;13.50;100.00;97241.56;5022497;28;20057;-46
2023/10/20 01:05:05;;;;;;;18.17;2.58;;;;;;;13.51;100.00;97231.97;5032591;28;20052;-49
2023/10/20 01:07:52;;;;;;;15.00;2.63;;;;;;;13.51;100.00;97240.31;5027764;28;20045;-48
2023/10/20 01:10:39;;;;;;;9.98;1.75;;;;;;;13.52;100.00;97238.31;5026238;28;20403;-47
2023/10/20 01:13:27;;;;;;;14.52;1.98;;;;;;;13.53;100.00;97240.66;5015540;28;20049;-48
2023/10/20 01:16:14;;;;;;;16.17;4.50;;;;;;;13.54;100.00;97252.53;5026143;28;20053;-49
2023/10/20 01:19:01;;;;;;;26.15;3.83;;;;;;;13.55;100.00;97259.66;5024405;28;20087;-46
2023/10/20 01:21:48;;;;;;;15.63;3.03;;;;;;;13.55;100.00;97254.09;5012171;28;20083;-46
2023/10/20 01:24:35;;;;;;;14.68;3.13;;;;;;;13.56;100.00;97256.44;5013949;28;20091;-47
2023/10/20 01:27:22;;;;;;;15.38;3.88;;;;;;;13.58;100.00;97253.22;5023522;28;20774;-45
2023/10/20 01:30:10;;;;;;;20.00;2.97;;;;;;;13.58;100.00;97242.84;5026530;28;20128;-53
2023/10/20 01:32:58;;;;;;;19.17;4.32;;;;;;;13.59;100.00;97246.41;5026266;28;20050;-51
2023/10/20 01:35:45;;;;;;;18.40;3.17;;;;;;;13.58;100.00;97240.06;5025813;28;20411;-46
2023/10/20 01:38:32;;;;;;;18.05;3.20;;;;;;;13.54;100.00;97247.75;5025931;28;20796;-46
2023/10/20 01:41:19;;;;;;;16.35;4.63;;;;;;;13.53;100.00;97251.75;5024963;28;20042;-47
2023/10/20 01:44:08;;;;;;;7.55;3.08;;;;;;;13.52;100.00;97250.22;4998902;28;20479;-49
2023/10/20 01:46:55;;;;;;;14.70;2.67;;;;;;;13.53;100.00;97251.00;5025434;28;20136;-46
2023/10/20 01:49:42;;;;;;;13.88;3.13;;;;;;;13.53;100.00;97243.41;5026287;28;20076;-49
2023/10/20 01:52:30;;;;;;;18.88;3.53;;;;;;;13.53;100.00;97242.66;5024126;28;20057;-50
2023/10/20 01:55:17;;;;;;;12.48;2.30;;;;;;;13.52;100.00;97247.44;5012442;28;20049;-46
2023/10/20 01:58:05;;;;;;;9.93;2.50;;;;;;;13.53;100.00;97240.66;5025100;28;20065;-45
2023/10/20 02:00:52;;;;;;;13.55;2.20;;;;;;;13.52;100.00;97238.31;5024836;28;20068;-47
2023/10/20 02:03:39;;;;;;;13.95;2.75;;;;;;;13.50;100.00;97236.00;5003415;28;20041;-51
2023/10/20 02:06:26;;;;;;;11.52;4.45;;;;;;;13.48;100.00;97248.78;5023774;28;20041;-49
2023/10/20 02:09:14;;;;;;;14.48;2.47;;;;;;;13.43;100.00;97241.78;5025143;28;20364;-45
2023/10/20 02:12:03;;;;;;;12.77;2.70;;;;;;;13.40;100.00;97242.69;5024560;28;20523;-48
2023/10/20 02:14:50;;;;;;;12.02;2.35;;;;;;;13.37;100.00;97238.03;5023304;28;20597;-45
2023/10/20 02:17:37;;;;;;;10.93;2.60;;;;;;;13.34;100.00;97231.34;5022334;28;20045;-45
2023/10/20 02:20:25;;;;;;;14.65;3.22;;;;;;;13.32;100.00;97230.25;5009542;28;20042;-45
2023/10/20 02:23:12;;;;;;;19.50;3.42;;;;;;;13.31;100.00;97239.84;5024052;28;20080;-49
2023/10/20 02:26:00;;;;;;;15.27;4.72;;;;;;;13.28;100.00;97241.50;5016701;28;20057;-47
2023/10/20 02:28:47;;;;;;;10.38;2.47;;;;;;;13.26;100.00;97240.41;5006767;28;20056;-45
2023/10/20 02:31:34;;;;;;;11.15;2.30;;;;;;;13.24;100.00;97237.28;5023071;28;20042;-46
2023/10/20 02:34:22;;;;;;;16.67;2.88;;;;;;;13.21;100.00;97249.31;5006991;28;20046;-46
2023/10/20 02:37:12;;;;;;;13.40;2.28;;;;;;;13.20;100.00;97250.53;5023570;28;20064;-46
2023/10/20 02:40:04;;;;;;;15.45;3.33;;;;;;;13.21;100.00;97241.72;5011098;28;20409;-46
2023/10/20 02:42:51;;;;;;;11.13;2.90;;;;;;;13.24;100.00;97251.16;5010610;28;20057;-45
2023/10/20 02:45:51;;;;;;;13.50;4.03;;;;;;;13.26;100.00;97238.38;5002880;28;20054;-48
2023/10/20 02:48:38;;;;;;;20.08;5.93;;;;;;;13.27;100.00;97231.59;4997816;28;20045;-45
2023/10/20 02:51:25;;;;;;;13.43;3.72;;;;;;;13.28;100.00;97237.94;5023355;28;20195;-47
2023/10/20 02:54:12;;;;;;;19.33;3.78;;;;;;;13.28;100.00;97227.63;5008428;28;20102;-47
2023/10/20 02:56:59;;;;;;;13.43;3.17;;;;;;;13.27;100.00;97220.50;5002672;28;20053;-45
2023/10/20 02:59:47;;;;;;;17.42;4.45;;;;;;;13.26;100.00;97227.28;5010498;28;20045;-45
2023/10/20 03:02:36;;;;;;;11.95;3.83;;;;;;;13.25;100.00;97227.72;5044357;22;20726;-45
2023/10/20 03:05:27;;;;;;;18.13;4.35;;;;;;;13.21;100.00;97219.50;4992134;28;20049;-43
2023/10/20 03:08:14;;;;;;;14.52;3.47;;;;;;;13.18;100.00;97222.41;4990658;28;20140;-45
2023/10/20 03:11:02;;;;;;;11.98;3.40;;;;;;;13.14;100.00;97213.41;5004435;28;20597;-43
2023/10/20 03:13:49;;;;;;;19.20;3.30;;;;;;;13.11;100.00;97217.88;5005231;28;20456;-43
2023/10/20 03:16:42;;;;;;;16.52;4.63;;;;;;;13.05;100.00;97214.06;5002370;28;20833;-43
2023/10/20 03:19:29;;;;;;;19.23;3.67;;;;;;;13.03;100.00;97216.50;5004944;28;20088;-43
2023/10/20 03:22:16;;;;;;;17.50;3.30;;;;;;;13.00;100.00;97217.41;5004965;28;20494;-43
2023/10/20 03:25:04;;;;;;;21.50;3.90;;;;;;;12.97;100.00;97214.75;5004707;28;20232;-49
2023/10/20 03:27:51;;;;;;;18.85;3.90;;;;;;;12.91;100.00;97205.44;4992597;28;20488;-46
2023/10/20 03:30:39;;;;;;;24.38;3.97;;;;;;;12.86;100.00;97203.22;5003945;28;20395;-43
2023/10/20 03:33:26;;;;;;;17.33;4.00;;;;;;;12.86;100.00;97211.56;5000373;28;20163;-44
2023/10/20 03:36:14;;;;;;;16.50;2.80;;;;;;;12.84;100.00;97218.31;4994900;28;20592;-43
2023/10/20 03:39:01;;;;;;;13.23;3.30;;;;;;;12.82;100.00;97214.44;5004838;28;20414;-44
2023/10/20 03:41:49;;;;;;;15.55;4.15;;;;;;;12.81;100.00;97215.66;4990684;28;20535;-43
2023/10/20 03:44:37;;;;;;;22.55;4.10;;;;;;;12.81;100.00;97216.41;5005023;28;20747;-43
2023/10/20 03:47:27;;;;;;;16.65;3.28;;;;;;;12.81;100.00;97213.66;4992890;28;20053;-43
2023/10/20 03:50:16;;;;;;;16.52;3.70;;;;;;;12.82;100.00;97209.66;5004773;28;20038;-43
2023/10/20 03:53:04;;;;;;;21.52;3.97;;;;;;;12.86;100.00;97217.09;5004416;28;20049;-43
2023/10/20 03:56:02;;;;;;;25.52;4.38;;;;;;;12.86;100.00;97214.31;5003927;28;20519;-43
2023/10/20 03:58:50;;;;;;;16.23;3.70;;;;;;;12.88;100.00;97207.09;4994442;28;20050;-43
2023/10/20 04:01:38;;;;;;;12.93;4.45;;;;;;;12.90;100.00;97217.75;5004824;28;20833;-43
2023/10/20 04:04:25;;;;;;;11.68;4.25;;;;;;;12.90;100.00;97215.75;5007755;28;20065;-43
2023/10/20 04:07:13;;;;;;;19.95;3.90;;;;;;;12.88;100.00;97214.66;5007868;28;20045;-43
2023/10/20 04:09:59;;;;;;;14.95;4.13;;;;;;;12.88;100.00;97212.66;5007954;28;20510;-44
2023/10/20 04:12:47;;;;;;;15.60;4.20;;;;;;;12.88;100.00;97218.22;5008821;28;20508;-43
2023/10/20 04:15:36;;;;;;;15.82;3.95;;;;;;;12.87;100.00;97219.41;4996300;28;20050;-43
2023/10/20 04:18:24;;;;;;;19.65;4.18;;;;;;;12.87;100.00;97215.88;5008429;28;20042;-43
2023/10/20 04:21:11;;;;;;;13.95;3.78;;;;;;;12.86;100.00;97219.88;4997181;28;20046;-43
2023/10/20 04:23:59;;;;;;;20.38;4.93;;;;;;;12.86;100.00;97219.88;5007414;28;20038;-42
2023/10/20 04:26:46;;;;;;;29.70;6.00;;;;;;;12.87;100.00;97218.66;5008489;28;20088;-45
2023/10/20 04:29:47;;;;;;;31.00;5.72;;;;;;;12.87;100.00;97219.41;4996151;28;20046;-43
2023/10/20 04:42:43;;;;;;;19.65;4.28;;;;;;;12.82;100.00;97201.34;5004489;28;20074;-43
2023/10/20 04:48:20;;;;;;;15.90;4.05;;;;;;;12.79;100.00;97210.56;5007583;28;20045;-43
2023/10/20 04:54:45;;;;;;;13.27;4.47;;;;;;;12.73;100.00;97217.88;4988080;28;20057;-50
2023/10/20 05:00:38;;;;;;;26.55;8.10;;;;;;;12.68;100.00;97217.69;5006596;28;20046;-43
2023/10/20 05:03:34;;;;;;;24.70;6.47;;;;;;;12.67;100.00;97222.44;4995334;28;20107;-43
2023/10/20 05:06:40;;;;;;;28.33;7.60;;;;;;;12.68;100.00;97215.66;5006591;28;20053;-44
2023/10/20 05:09:27;;;;;;;28.92;7.80;;;;;;;12.70;100.00;97218.00;5000695;28;20042;-44
2023/10/20 05:12:14;;;;;;;80.93;13.82;;;;;;;12.70;100.00;97215.22;4985447;28;20427;-43
2023/10/20 05:15:01;;;;;;;29.00;6.63;;;;;;;12.71;100.00;97209.22;4996541;28;20507;-43
2023/10/20 05:17:50;;;;;;;28.92;6.97;;;;;;;12.71;100.00;97214.78;5006458;28;20048;-43
2023/10/20 05:20:38;;;;;;;17.20;5.43;;;;;;;12.73;100.00;97208.78;5006983;28;20096;-43
2023/10/20 05:23:25;;;;;;;19.60;5.30;;;;;;;12.73;100.00;97206.78;5000543;28;20411;-43
2023/10/20 05:26:13;;;;;;;23.05;6.13;;;;;;;12.72;100.00;97216.34;4986911;28;20057;-52
2023/10/20 05:29:01;;;;;;;21.60;5.20;;;;;;;12.72;100.00;97213.56;5004854;28;20049;-43
2023/10/20 05:31:48;;;;;;;30.20;6.68;;;;;;;12.71;100.00;97211.22;5006291;28;20050;-43
2023/10/20 05:34:35;;;;;;;23.02;5.97;;;;;;;12.70;100.00;97213.22;5005916;28;20049;-43
2023/10/20 05:37:22;;;;;;;17.20;4.65;;;;;;;12.73;100.00;97225.44;4999979;28;20050;-43
2023/10/20 05:40:13;;;;;;;24.02;5.40;;;;;;;12.75;100.00;97217.44;5001172;28;20046;-43
2023/10/20 05:43:01;;;;;;;25.35;7.60;;;;;;;12.77;100.00;97210.22;5005875;28;20129;-46
2023/10/20 05:45:48;;;;;;;29.10;8.25;;;;;;;12.79;100.00;97218.88;5005336;28;20442;-43
2023/10/20 05:48:35;;;;;;;17.40;6.70;;;;;;;12.81;100.00;97216.41;5004813;28;20538;-45
2023/10/20 05:51:22;;;;;;;26.10;7.28;;;;;;;12.86;100.00;97217.09;5002001;28;20054;-43
2023/10/20 05:54:10;;;;;;;38.35;9.27;;;;;;;12.89;100.00;97217.00;5007172;28;20531;-44
2023/10/20 05:56:57;;;;;;;33.00;8.68;;;;;;;12.92;100.00;97221.63;5002855;28;20721;-45
2023/10/20 05:59:46;;;;;;;23.95;7.25;;;;;;;12.94;100.00;97222.00;5001833;28;20046;-48
2023/10/20 06:02:34;;;;;;;25.75;7.68;;;;;;;12.96;100.00;97218.75;5003833;28;20482;-43
2023/10/20 06:05:22;;;;;;;37.40;8.30;;;;;;;12.98;100.00;97213.53;4993703;28;20054;-43
2023/10/20 06:08:09;;;;;;;22.73;7.57;;;;;;;13.00;100.00;97222.97;4996213;28;20056;-44
2023/10/20 06:11:03;;;;;;;19.63;6.57;;;;;;;13.04;100.00;97225.63;5006034;28;20559;-44
2023/10/20 06:13:50;;;;;;;22.58;8.02;;;;;;;13.05;100.00;97216.09;5001877;28;20128;-43
2023/10/20 06:16:38;;;;;;;21.23;6.20;;;;;;;13.06;100.00;97228.72;5001900;28;20195;-45
2023/10/20 06:19:28;;;;;;;18.33;6.40;;;;;;;13.09;100.00;97231.44;5005281;28;20057;-45
2023/10/20 06:22:16;;;;;;;21.92;6.97;;;;;;;13.12;100.00;97235.31;5005752;28;20100;-44
2023/10/20 06:25:10;;;;;;;28.23;8.00;;;;;;;13.14;100.00;97230.06;4999841;28;20038;-47
2023/10/20 06:27:57;;;;;;;26.98;7.28;;;;;;;13.16;100.00;97233.19;4993012;28;21197;-47
2023/10/20 06:30:45;;;;;;;22.40;7.22;;;;;;;13.18;100.00;97233.53;5002831;28;20790;-43
2023/10/20 06:33:32;;;;;;;24.08;6.55;;;;;;;13.18;100.00;97237.09;4996432;28;20057;-43
2023/10/20 06:36:25;;;;;;;30.10;7.63;;;;;;;13.20;100.00;97244.97;5001133;28;20054;-43
2023/10/20 06:39:18;;;;;;;23.02;7.40;;;;;;;13.21;100.00;97244.50;5004999;28;20048;-51
2023/10/20 06:42:06;;;;;;;20.95;7.57;;;;;;;13.22;100.00;97257.19;5003582;28;20046;-47
2023/10/20 06:44:53;;;;;;;26.67;7.03;;;;;;;13.24;100.00;97263.06;5006602;28;20045;-46
2023/10/20 06:47:40;;;;;;;28.83;8.65;;;;;;;13.26;100.00;97266.16;5005253;28;20488;-46
2023/10/20 06:50:27;;;;;;;33.42;9.73;;;;;;;13.27;100.00;97262.16;4994546;28;20415;-43
2023/10/20 06:53:15;;;;;;;37.30;11.60;;;;;;;13.29;100.00;97261.75;4995477;28;20045;-46
2023/10/20 06:56:05;;;;;;;27.38;9.20;;;;;;;13.30;100.00;97260.50;5005127;28;20073;-45
2023/10/20 06:59:03;;;;;;;36.90;9.80;;;;;;;13.31;100.00;97267.63;5004265;28;20038;-46
2023/10/20 07:01:50;;;;;;;45.90;10.73;;;;;;;13.32;100.00;97263.59;4990944;28;20050;-45
2023/10/20 07:04:38;;;;;;;29.65;9.48;;;;;;;13.32;100.00;97258.81;5005684;28;20061;-45
2023/10/20 07:07:25;;;;;;;32.45;11.18;;;;;;;13.32;100.00;97263.59;5005309;28;20042;-46
2023/10/20 07:10:12;;;;;;;27.55;9.80;;;;;;;13.31;100.00;97262.84;4991446;28;20085;-46
2023/10/20 07:13:00;;;;;;;26.80;9.32;;;;;;;13.32;100.00;97263.59;5005181;28;20046;-46
2023/10/20 07:15:52;;;;;;;42.03;11.63;;;;;;;13.32;100.00;97263.59;5002261;28;20042;-44
2023/10/20 07:18:39;;;;;;;27.90;9.60;;;;;;;13.33;100.00;97267.94;5001209;28;20065;-48
2023/10/20 07:21:26;;;;;;;42.45;12.15;;;;;;;13.35;100.00;97266.25;5000344;28;20077;-45
2023/10/20 07:24:13;;;;;;;45.58;13.88;;;;;;;13.36;100.00;97267.03;4995928;28;20566;-49
2023/10/20 07:27:01;;;;;;;35.70;13.60;;;;;;;13.37;100.00;97271.38;5000568;28;20495;-48
2023/10/20 07:29:49;;;;;;;33.28;11.38;;;;;;;13.39;100.00;97266.16;5003250;28;20053;-45
2023/10/20 07:32:36;;;;;;;36.65;12.75;;;;;;;13.40;100.00;97270.47;5002943;28;20050;-46
2023/10/20 07:35:24;;;;;;;38.03;12.40;;;;;;;13.42;100.00;97268.03;5005922;28;20115;-46
2023/10/20 07:38:12;;;;;;;39.08;13.98;;;;;;;13.43;100.00;97264.03;5007115;28;20046;-45
2023/10/20 07:41:06;;;;;;;47.75;14.35;;;;;;;13.44;100.00;97262.81;5003459;28;20046;-45
2023/10/20 07:43:53;;;;;;;36.90;11.15;;;;;;;13.45;100.00;97264.34;5006117;28;20172;-45
2023/10/20 07:46:43;;;;;;;25.25;10.50;;;;;;;13.46;100.00;97263.13;5007540;28;20046;-46
2023/10/20 07:49:30;;;;;;;31.05;11.32;;;;;;;13.47;100.00;97270.25;5007511;28;20161;-48
2023/10/20 07:52:17;;;;;;;31.77;12.00;;;;;;;13.48;100.00;97266.22;4993511;28;20100;-47
2023/10/20 07:55:05;;;;;;;49.30;12.02;;;;;;;13.49;100.00;97276.13;5007597;28;20503;-49
2023/10/20 07:57:54;;;;;;;30.13;10.88;;;;;;;13.49;100.00;97276.13;5005375;28;20102;-45
2023/10/20 08:00:41;;;;;;;27.38;10.68;;;;;;;13.52;100.00;97277.22;5006538;28;20076;-48
2023/10/20 08:03:28;;;;;;;32.90;9.35;;;;;;;13.52;100.00;97275.25;4997382;28;20152;-48
2023/10/20 08:06:16;;;;;;;22.63;7.95;;;;;;;13.55;100.00;97273.56;4997204;28;20057;-45
2023/10/20 08:09:04;;;;;;;16.60;6.55;;;;;;;13.55;100.00;97285.47;5006406;28;20133;-48
2023/10/20 08:11:51;;;;;;;19.85;5.75;;;;;;;13.54;100.00;97277.56;5008348;28;20050;-45
2023/10/20 08:14:38;;;;;;;20.27;5.80;;;;;;;13.53;100.00;97285.09;5006886;28;20535;-45
2023/10/20 08:17:25;;;;;;;25.95;7.70;;;;;;;13.53;100.00;97289.91;4999033;28;20386;-46
2023/10/20 08:20:12;;;;;;;18.38;7.05;;;;;;;13.54;100.00;97297.78;5001037;28;20049;-46
2023/10/20 08:23:00;;;;;;;21.38;7.25;;;;;;;13.53;100.00;97296.22;5001635;28;20073;-45
2023/10/20 08:25:47;;;;;;;19.75;6.20;;;;;;;13.54;100.00;97292.22;5007059;28;20046;-47
2023/10/20 08:28:34;;;;;;;21.48;6.20;;;;;;;13.54;100.00;97305.34;5005485;28;20112;-45
2023/10/20 08:31:21;;;;;;;20.48;6.75;;;;;;;13.53;100.00;97301.78;5004960;28;20046;-45
2023/10/20 08:34:09;;;;;;;15.23;5.05;;;;;;;13.52;100.00;97300.25;5005228;28;20046;-46
2023/10/20 08:36:56;;;;;;;13.18;5.47;;;;;;;13.53;100.00;97301.78;5005456;28;20148;-45
2023/10/20 08:39:44;;;;;;;17.65;4.55;;;;;;;13.54;100.00;97310.91;5006058;28;20108;-46
2023/10/20 08:42:32;;;;;;;15.95;4.65;;;;;;;13.53;100.00;97312.91;5002432;28;20164;-47
2023/10/20 08:45:22;;;;;;;14.80;4.47;;;;;;;13.52;100.00;97313.34;5004212;28;20061;-46
2023/10/20 08:48:09;;;;;;;16.13;5.15;;;;;;;13.51;100.00;97309.81;5003535;28;20080;-47
2023/10/20 08:50:59;;;;;;;17.48;4.55;;;;;;;13.50;100.00;97313.81;5005176;28;20734;-46
2023/10/20 08:53:46;;;;;;;5.95;3.13;;;;;;;13.49;100.00;97315.03;5006173;28;20050;-46
2023/10/20 08:56:34;;;;;;;15.82;3.15;;;;;;;13.49;100.00;97317.03;5006071;28;20049;-46
2023/10/20 08:59:21;;;;;;;16.70;4.90;;;;;;;13.47;100.00;97319.50;4998404;28;20131;-46
2023/10/20 09:02:08;;;;;;;14.13;3.88;;;;;;;13.45;100.00;97322.69;5002172;28;20077;-46
2023/10/20 09:04:55;;;;;;;14.07;4.10;;;;;;;13.45;100.00;97322.69;5006430;28;20103;-46
2023/10/20 09:07:51;;;;;;;11.15;3.70;;;;;;;13.45;100.00;97316.38;5005372;28;20500;-47
2023/10/20 09:10:47;;;;;;;13.68;3.42;;;;;;;13.45;100.00;97319.91;5000284;28;20156;-48
2023/10/20 09:13:36;;;;;;;11.40;3.72;;;;;;;13.43;100.00;97316.81;5002300;28;20152;-45
2023/10/20 09:16:23;;;;;;;12.75;4.13;;;;;;;13.43;100.00;97330.72;4996876;28;20103;-45
2023/10/20 09:19:11;;;;;;;12.18;3.80;;;;;;;13.42;100.00;97335.47;5005247;28;20050;-48
2023/10/20 09:21:58;;;;;;;10.93;3.60;;;;;;;13.41;100.00;97333.16;5005365;28;20053;-46
2023/10/20 09:24:48;;;;;;;14.38;3.30;;;;;;;13.42;100.00;97334.72;4996495;28;20050;-48
2023/10/20 09:27:35;;;;;;;11.80;3.53;;;;;;;13.41;100.00;97327.59;5004595;28;20262;-47
2023/10/20 09:30:24;;;;;;;8.25;3.15;;;;;;;13.40;100.00;97324.03;5002810;28;20451;-46
2023/10/20 09:33:11;;;;;;;4.82;2.42;;;;;;;13.39;100.00;97336.41;5005489;28;20135;-48
2023/10/20 09:36:01;;;;;;;10.52;3.50;;;;;;;13.41;100.00;97330.38;4993931;28;20109;-47
2023/10/20 09:38:53;;;;;;;9.68;2.92;;;;;;;13.42;100.00;97331.94;5004680;28;20041;-46
2023/10/20 09:41:48;;;;;;;24.17;4.10;;;;;;;13.41;100.00;97335.94;5004325;28;20034;-46
2023/10/20 09:44:46;;;;;;;7.82;2.97;;;;;;;13.41;100.00;97338.72;5000583;28;20046;-47
2023/10/20 09:47:36;;;;;;;11.43;3.00;;;;;;;13.41;100.00;97330.38;5003195;28;20096;-48
2023/10/20 09:50:25;;;;;;;9.20;2.75;;;;;;;13.40;100.00;97345.50;4998837;28;20046;-47
2023/10/20 09:53:15;;;;;;;7.07;2.53;;;;;;;13.39;100.00;97335.63;5000872;28;20085;-56
2023/10/20 09:56:05;;;;;;;10.32;2.80;;;;;;;13.42;100.00;97340.28;5004947;28;20092;-46
2023/10/20 09:58:58;;;;;;;9.40;2.50;;;;;;;13.43;100.00;97341.81;5003390;28;20049;-46
2023/10/20 10:01:47;;;;;;;12.75;3.38;;;;;;;13.45;100.00;97344.94;5004764;28;20166;-46
2023/10/20 10:04:37;;;;;;;7.20;2.78;;;;;;;13.43;100.00;97347.38;5003394;28;20053;-47
2023/10/20 10:07:32;;;;;;;15.10;4.45;;;;;;;13.44;100.00;97346.16;5004327;28;20519;-48
2023/10/20 10:10:20;;;;;;;9.10;2.17;;;;;;;13.46;100.00;97349.28;4997623;28;20050;-46
2023/10/20 10:13:07;;;;;;;13.05;2.60;;;;;;;13.44;100.00;97360.06;5000066;28;20089;-46
2023/10/20 10:15:55;;;;;;;20.30;4.15;;;;;;;13.41;100.00;97366.50;5004085;28;20132;-46
2023/10/20 10:18:47;;;;;;;17.15;2.60;;;;;;;13.36;100.00;97367.06;5002146;28;20897;-46
2023/10/20 10:21:39;;;;;;;22.48;3.70;;;;;;;13.29;100.00;97365.28;5003171;28;20053;-46
2023/10/20 10:24:29;;;;;;;31.35;5.13;;;;;;;13.24;100.00;97378.94;4977880;28;20128;-53
2023/10/20 10:27:16;;;;;;;26.02;4.47;;;;;;;13.19;100.00;97379.50;4997760;28;20050;-45
2023/10/20 10:30:07;;;;;;;14.40;4.53;;;;;;;13.15;100.00;97376.06;4981648;28;20073;-45
2023/10/20 10:32:54;;;;;;;22.25;3.38;;;;;;;13.09;100.00;97375.06;4984933;28;20428;-46
2023/10/20 10:35:42;;;;;;;20.35;3.95;;;;;;;13.04;100.00;97375.59;4980395;28;20096;-45
2023/10/20 10:38:29;;;;;;;19.67;3.78;;;;;;;12.99;100.00;97376.13;4982798;28;20100;-46
2023/10/20 10:41:24;;;;;;;19.13;3.50;;;;;;;12.93;100.00;97377.91;4982057;28;20108;-47
2023/10/20 10:44:12;;;;;;;20.83;3.63;;;;;;;12.86;100.00;97380.91;4977824;28;20100;-55
2023/10/20 10:47:00;;;;;;;18.10;3.72;;;;;;;12.80;100.00;97383.44;4987890;28;20061;-47
2023/10/20 10:49:48;;;;;;;15.57;3.00;;;;;;;12.72;100.00;97396.75;4983879;28;20039;-48
2023/10/20 10:52:35;;;;;;;25.48;3.15;;;;;;;12.62;100.00;97403.38;4984985;28;20034;-47
2023/10/20 10:55:24;;;;;;;28.52;4.40;;;;;;;12.57;100.00;97398.38;5002101;28;20057;-50
2023/10/20 10:58:12;;;;;;;27.52;5.07;;;;;;;12.53;100.00;97403.22;5004340;28;20053;-46
2023/10/20 11:01:00;;;;;;;24.05;2.63;;;;;;;12.48;100.00;97403.78;4990163;28;20205;-47
2023/10/20 11:03:49;;;;;;;15.23;3.15;;;;;;;12.41;100.00;97409.53;4994927;28;20103;-48
2023/10/20 11:06:38;;;;;;;20.95;2.88;;;;;;;12.37;100.00;97411.59;4999777;28;20149;-46
2023/10/20 11:09:27;;;;;;;12.50;2.70;;;;;;;12.36;100.00;97404.53;5000781;28;20046;-50
2023/10/20 11:12:14;;;;;;;12.00;2.75;;;;;;;12.34;100.00;97406.94;5012601;28;20090;-45
2023/10/20 11:15:05;;;;;;;20.95;2.20;;;;;;;12.33;100.00;97410.16;5006143;28;20062;-48
2023/10/20 11:17:52;;;;;;;23.15;2.30;;;;;;;12.31;100.00;97410.56;5007789;28;20176;-46
2023/10/20 11:20:41;;;;;;;0.00;0.00;;;;;;;12.30;100.00;97414.59;5006926;28;20045;-46
2023/10/20 11:23:30;;;;;;;0.00;0.00;;;;;;;12.30;100.00;97411.03;5006847;28;20187;-46
2023/10/20 11:26:24;;;;;;;0.00;0.00;;;;;;;12.29;100.00;97415.78;4991432;28;20057;-45
2023/10/20 11:29:12;;;;;;;0.00;0.00;;;;;;;12.27;100.00;97415.44;5006539;28;20155;-53
2023/10/20 11:32:07;;;;;;;0.10;0.10;;;;;;;12.27;100.00;97417.44;5003647;28;20050;-46
2023/10/20 11:34:54;;;;;;;0.00;0.00;;;;;;;12.23;100.00;97414.78;5006555;28;20139;-47
2023/10/20 11:37:41;;;;;;;0.00;0.00;;;;;;;12.19;100.00;97422.41;5006547;28;20046;-46
2023/10/20 11:40:29;;;;;;;0.00;0.00;;;;;;;12.13;100.00;97419.38;5007285;28;20077;-46
2023/10/20 11:43:16;;;;;;;0.00;0.00;;;;;;;12.10;100.00;97409.16;5006703;28;20061;-46
2023/10/20 11:46:05;;;;;;;0.00;0.00;;;;;;;12.07;100.00;97404.47;5001781;28;20050;-46
2023/10/20 11:48:53;;;;;;;0.03;0.03;;;;;;;12.02;100.00;97407.03;4997395;28;20046;-45
2023/10/20 11:51:40;;;;;;;0.00;0.00;;;;;;;11.99;100.00;97408.66;5001128;28;20042;-47
2023/10/20 11:54:27;;;;;;;0.00;0.00;;;;;;;11.97;100.00;97413.06;5001129;28;20522;-53
2023/10/20 11:57:15;;;;;;;0.00;0.00;;;;;;;11.95;100.00;97401.63;4999441;28;20057;-45
2023/10/20 12:00:07;;;;;;;0.00;0.00;;;;;;;11.89;100.00;97408.91;5005700;28;20072;-45
2023/10/20 12:02:54;;;;;;;0.00;0.00;;;;;;;11.84;100.00;97417.75;5003527;28;20054;-49
2023/10/20 12:05:42;;;;;;;0.00;0.00;;;;;;;11.86;100.00;97407.03;5005939;28;20049;-46
2023/10/20 12:08:32;;;;;;;0.00;0.00;;;;;;;11.84;100.00;97412.22;4996477;28;20239;-45
2023/10/20 12:11:19;;;;;;;0.00;0.00;;;;;;;11.79;100.00;97410.75;5006841;28;20738;-49
2023/10/20 12:14:08;;;;;;;0.00;0.00;;;;;;;11.76;100.00;97405.28;5005957;28;20088;-48
2023/10/20 12:16:55;;;;;;;6.03;1.90;;;;;;;11.75;100.00;97410.06;5004822;28;20496;-48
2023/10/20 12:19:44;;;;;;;0.00;0.00;;;;;;;11.71;100.00;97408.59;5003223;28;20049;-45
2023/10/20 12:22:35;;;;;;;0.00;0.00;;;;;;;11.70;100.00;97418.13;5003851;28;20065;-45
2023/10/20 12:25:22;;;;;;;0.00;0.00;;;;;;;11.64;100.00;97415.06;4994104;28;20056;-47
2023/10/20 12:28:10;;;;;;;50.42;1.55;;;;;;;11.59;100.00;97410.03;5004418;28;20054;-47
2023/10/20 12:30:59;;;;;;;1.65;1.55;;;;;;;11.57;100.00;97404.91;5007533;28;20172;-45
2023/10/20 12:33:46;;;;;;;0.00;0.00;;;;;;;11.54;100.00;97414.09;5005854;28;20065;-45
2023/10/20 12:36:35;;;;;;;0.00;0.00;;;;;;;11.54;100.00;97416.09;4997778;28;20483;-45
2023/10/20 12:39:22;;;;;;;0.00;0.00;;;;;;;11.51;100.00;97411.41;5001129;28;20061;-46
2023/10/20 12:42:10;;;;;;;0.75;0.47;;;;;;;11.48;100.00;97424.16;5007300;28;20157;-46
2023/10/20 12:45:00;;;;;;;0.00;0.00;;;;;;;11.50;100.00;97418.94;5005069;28;20050;-45
2023/10/20 12:47:47;;;;;;;0.00;0.00;;;;;;;11.46;100.00;97421.00;5001390;28;20057;-45
2023/10/20 12:50:36;;;;;;;0.00;0.00;;;;;;;11.43;100.00;97432.19;4996472;28;20062;-48
2023/10/20 12:53:23;;;;;;;0.00;0.00;;;;;;;11.40;100.00;97425.53;5002770;28;20057;-46
2023/10/20 12:56:10;;;;;;;0.10;0.10;;;;;;;11.37;100.00;97439.44;5006977;28;20476;-45
2023/10/20 12:58:58;;;;;;;0.00;0.00;;;;;;;11.31;100.00;97425.31;5005895;28;20050;-45
2023/10/20 13:01:46;;;;;;;0.00;0.00;;;;;;;11.32;100.00;97426.09;5006122;28;20046;-45
2023/10/20 13:04:34;;;;;;;0.00;0.00;;;;;;;11.27;100.00;97424.63;5004786;28;20049;-45
2023/10/20 13:07:21;;;;;;;0.00;0.00;;;;;;;11.23;100.00;97429.47;5006663;28;20768;-47
2023/10/20 13:10:09;;;;;;;0.00;0.00;;;;;;;11.24;100.00;97436.56;5004390;28;20053;-47
2023/10/20 13:12:36;;;;;;;0.00;0.00;;;;;;;11.21;100.00;97426.34;5012180;28;20115;-46
2023/10/20 13:15:04;;;;;;;0.00;0.00;;;;;;;11.17;100.00;97424.88;5005245;28;20034;-47